Time;durP1;ratioP1;P1;durP2;ratioP2;P2;SDS_P1;SDS_P2;PMS_P1;PMS_P2;Temp;Humidity;BMP_temperature;BMP_pressure;BME280_temperature;BME280_humidity;BME280_pressure;Samples;Min_cycle;Max_cycle;Signal;HPM_P1;HPM_P2
2023/01/28 00:01:07;;;;;;;3.77;3.07;;;1.90;99.90;;;;;;5098560;27;20201;-55
2023/01/28 00:03:35;;;;;;;2.87;2.50;;;1.90;99.90;;;;;;5106562;27;20264;-46
2023/01/28 00:06:03;;;;;;;5.20;3.10;;;1.90;99.90;;;;;;5111000;27;20251;-51
2023/01/28 00:08:30;;;;;;;4.60;2.53;;;1.90;99.90;;;;;;5109357;27;20202;-46
2023/01/28 00:10:59;;;;;;;4.10;3.20;;;1.90;99.90;;;;;;5110850;27;20200;-49
2023/01/28 00:13:26;;;;;;;3.33;2.50;;;1.90;99.90;;;;;;5106022;27;20189;-49
2023/01/28 00:15:55;;;;;;;4.57;2.63;;;1.90;99.90;;;;;;5100607;27;20243;-51
2023/01/28 00:18:24;;;;;;;4.67;2.50;;;1.90;99.90;;;;;;5078847;27;20297;-56
2023/01/28 00:20:58;;;;;;;3.00;2.30;;;1.90;99.90;;;;;;5105311;27;20193;-46
2023/01/28 00:23:26;;;;;;;3.40;2.57;;;1.90;99.90;;;;;;5104924;27;20987;-49
2023/01/28 00:25:53;;;;;;;5.93;2.47;;;1.90;99.90;;;;;;5107311;27;20221;-46
2023/01/28 00:28:20;;;;;;;3.37;2.70;;;1.90;99.90;;;;;;5105571;27;20712;-56
2023/01/28 00:30:47;;;;;;;3.13;2.30;;;1.90;99.90;;;;;;5100787;27;20201;-48
2023/01/28 00:33:14;;;;;;;2.47;2.23;;;1.90;99.90;;;;;;5083170;27;20205;-56
2023/01/28 00:35:41;;;;;;;4.23;2.50;;;1.90;99.90;;;;;;5101171;27;20189;-47
2023/01/28 00:38:10;;;;;;;3.90;2.57;;;1.90;99.90;;;;;;5094906;27;20205;-54
2023/01/28 00:40:37;;;;;;;4.17;2.43;;;1.90;99.90;;;;;;5102932;27;20281;-50
2023/01/28 00:43:04;;;;;;;3.20;2.47;;;1.90;99.90;;;;;;5087479;27;20684;-52
2023/01/28 00:45:31;;;;;;;2.50;2.20;;;1.90;99.90;;;;;;5102351;27;20221;-47
2023/01/28 00:47:58;;;;;;;3.47;2.67;;;1.80;99.90;;;;;;5088020;27;20216;-46
2023/01/28 00:50:25;;;;;;;3.23;2.03;;;1.80;99.90;;;;;;5107097;27;20201;-47
2023/01/28 00:52:52;;;;;;;3.47;2.10;;;1.80;99.90;;;;;;5101172;27;20201;-46
2023/01/28 00:55:21;;;;;;;1.57;1.30;;;1.80;99.90;;;;;;5099450;27;20278;-55
2023/01/28 00:57:48;;;;;;;1.77;1.30;;;1.80;99.90;;;;;;5093012;28;20207;-54
2023/01/28 01:00:15;;;;;;;2.27;1.40;;;1.80;99.90;;;;;;5103786;27;20217;-54
2023/01/28 01:02:42;;;;;;;1.87;1.60;;;1.80;99.90;;;;;;5097064;27;20329;-52
2023/01/28 01:05:09;;;;;;;2.13;1.93;;;1.80;99.90;;;;;;5082473;27;20235;-53
2023/01/28 01:07:41;;;;;;;3.53;1.97;;;1.80;99.90;;;;;;5115728;27;20204;-51
2023/01/28 01:10:09;;;;;;;2.83;2.43;;;1.90;99.90;;;;;;5105612;27;20665;-54
2023/01/28 01:12:39;;;;;;;3.87;1.87;;;1.80;99.90;;;;;;5096163;28;20186;-47
2023/01/28 01:15:09;;;;;;;3.60;2.53;;;1.90;99.90;;;;;;5103990;27;20213;-54
2023/01/28 01:17:37;;;;;;;2.30;2.10;;;2.00;99.90;;;;;;5096956;27;20296;-50
2023/01/28 01:20:09;;;;;;;2.50;1.90;;;1.90;99.90;;;;;;5086647;27;20205;-55
2023/01/28 01:22:37;;;;;;;3.70;2.27;;;1.90;99.90;;;;;;5098788;27;20237;-48
2023/01/28 01:25:04;;;;;;;3.87;2.43;;;1.90;99.90;;;;;;5101863;27;20227;-48
2023/01/28 01:27:31;;;;;;;3.07;2.10;;;1.90;99.90;;;;;;5101461;27;20268;-49
2023/01/28 01:30:00;;;;;;;2.20;1.73;;;2.00;99.90;;;;;;5105207;27;20196;-46
2023/01/28 01:32:30;;;;;;;4.73;2.07;;;2.00;99.90;;;;;;5099217;27;20202;-47
2023/01/28 01:34:57;;;;;;;2.90;2.10;;;2.00;99.90;;;;;;5103650;27;20225;-47
2023/01/28 01:37:25;;;;;;;3.53;2.30;;;2.00;99.90;;;;;;5081378;27;20228;-48
2023/01/28 01:39:52;;;;;;;2.10;1.90;;;2.00;99.90;;;;;;5120816;27;20660;-45
2023/01/28 01:42:19;;;;;;;1.93;1.63;;;1.90;99.90;;;;;;5107831;27;20197;-54
2023/01/28 01:45:06;;;;;;;2.40;2.20;;;1.90;99.90;;;;;;5098806;27;20217;-50
2023/01/28 01:47:41;;;;;;;3.93;1.90;;;1.90;99.90;;;;;;5101526;27;20193;-50
2023/01/28 01:50:16;;;;;;;2.60;1.80;;;1.90;99.90;;;;;;5098792;28;20264;-55
2023/01/28 01:52:43;;;;;;;2.93;1.77;;;1.80;99.90;;;;;;5105264;27;20921;-46
2023/01/28 01:55:16;;;;;;;2.97;1.80;;;1.80;99.90;;;;;;5122365;27;20220;-54
2023/01/28 01:57:45;;;;;;;1.60;1.40;;;1.80;99.90;;;;;;5122980;27;20370;-48
2023/01/28 02:00:13;;;;;;;4.00;1.90;;;1.80;99.90;;;;;;5110694;27;20193;-55
2023/01/28 02:02:43;;;;;;;2.70;1.33;;;1.80;99.90;;;;;;5102876;28;20219;-49
2023/01/28 02:05:12;;;;;;;3.57;1.47;;;1.80;99.90;;;;;;5103281;27;20210;-55
2023/01/28 02:07:39;;;;;;;2.57;1.57;;;1.80;99.90;;;;;;5080272;28;20223;-46
2023/01/28 02:10:09;;;;;;;3.50;1.50;;;1.80;99.90;;;;;;5109234;27;20200;-53
2023/01/28 02:12:39;;;;;;;2.93;1.40;;;1.80;99.90;;;;;;5104304;27;20179;-52
2023/01/28 02:15:09;;;;;;;2.13;1.60;;;1.80;99.90;;;;;;5094636;28;20270;-56
2023/01/28 02:17:38;;;;;;;5.10;2.23;;;1.80;99.90;;;;;;5101935;28;20200;-47
2023/01/28 02:20:09;;;;;;;3.07;1.77;;;1.80;99.90;;;;;;5102237;28;20227;-51
2023/01/28 02:22:55;;;;;;;3.80;2.03;;;1.70;99.90;;;;;;5081779;28;20217;-46
2023/01/28 02:25:50;;;;;;;3.73;1.90;;;1.70;99.90;;;;;;5110544;27;20634;-54
2023/01/28 02:28:26;;;;;;;3.00;1.63;;;1.70;99.90;;;;;;5120790;27;20219;-55
2023/01/28 02:31:00;;;;;;;2.70;2.00;;;1.70;99.90;;;;;;5123875;27;20244;-46
2023/01/28 02:33:33;;;;;;;2.03;1.70;;;1.70;99.90;;;;;;5117850;28;20797;-47
2023/01/28 02:36:09;;;;;;;3.23;1.80;;;1.70;99.90;;;;;;5122716;28;20270;-47
2023/01/28 02:38:42;;;;;;;2.77;1.40;;;1.70;99.90;;;;;;5093986;28;20932;-47
2023/01/28 02:41:15;;;;;;;1.87;1.60;;;1.70;99.90;;;;;;5108386;27;20271;-54
2023/01/28 02:43:45;;;;;;;3.53;1.70;;;1.70;99.90;;;;;;5099368;28;20239;-46
2023/01/28 02:49:07;;;;;;;2.43;1.67;;;1.70;99.90;;;;;;5103998;28;20189;-50
2023/01/28 02:51:48;;;;;;;4.00;1.70;;;1.70;99.90;;;;;;5098886;28;20204;-47
2023/01/28 02:54:25;;;;;;;1.87;1.67;;;1.60;99.90;;;;;;5083046;28;20224;-55
2023/01/28 02:57:02;;;;;;;2.67;1.40;;;1.60;99.90;;;;;;5115192;28;20197;-50
2023/01/28 02:59:38;;;;;;;2.53;1.80;;;1.60;99.90;;;;;;5118876;28;21006;-51
2023/01/28 03:02:20;;;;;;;2.30;1.30;;;1.70;99.90;;;;;;5098672;28;20734;-55
2023/01/28 03:04:54;;;;;;;2.17;1.40;;;1.70;99.90;;;;;;5101765;28;20250;-52
2023/01/28 03:07:25;;;;;;;3.63;1.90;;;1.70;99.90;;;;;;5099152;28;20210;-53
2023/01/28 03:09:51;;;;;;;2.27;1.60;;;1.70;99.90;;;;;;5085619;28;20201;-50
2023/01/28 03:37:35;;;;;;;1.60;1.50;;;1.60;99.90;;;;;;5102166;27;20235;-52
2023/01/28 03:40:12;;;;;;;3.77;1.87;;;1.60;99.90;;;;;;5105771;27;20282;-47
2023/01/28 03:42:39;;;;;;;5.10;1.90;;;1.60;99.90;;;;;;5102510;27;20858;-47
2023/01/28 03:45:13;;;;;;;1.80;1.70;;;1.50;99.90;;;;;;5103819;27;20231;-46
2023/01/28 03:47:42;;;;;;;3.03;1.70;;;1.60;99.90;;;;;;5119885;27;20194;-51
2023/01/28 03:50:11;;;;;;;1.73;1.50;;;1.60;99.90;;;;;;5125497;27;20733;-49
2023/01/28 03:52:47;;;;;;;4.60;1.80;;;1.60;99.90;;;;;;5122729;27;20204;-49
2023/01/28 03:55:30;;;;;;;3.50;1.80;;;1.60;99.90;;;;;;5102348;27;20221;-56
2023/01/28 03:57:57;;;;;;;2.93;2.10;;;1.60;99.90;;;;;;5091432;27;20208;-47
2023/01/28 04:00:24;;;;;;;2.07;1.83;;;1.60;99.90;;;;;;5105604;27;20284;-53
2023/01/28 04:02:53;;;;;;;2.23;1.80;;;1.50;99.90;;;;;;5117174;27;20216;-48
2023/01/28 04:05:21;;;;;;;3.67;1.87;;;1.50;99.90;;;;;;5123843;27;20228;-55
2023/01/28 04:07:51;;;;;;;6.33;1.67;;;1.50;99.90;;;;;;5118301;27;20937;-50
2023/01/28 04:10:29;;;;;;;1.77;1.53;;;1.50;99.90;;;;;;5123777;27;20639;-54
2023/01/28 04:13:10;;;;;;;2.70;2.10;;;1.50;99.90;;;;;;5095014;27;20197;-46
2023/01/28 04:15:37;;;;;;;2.70;1.73;;;1.40;99.90;;;;;;5111525;27;20247;-50
2023/01/28 04:18:06;;;;;;;1.80;1.67;;;1.40;99.90;;;;;;5119763;27;20246;-50
2023/01/28 04:20:34;;;;;;;2.13;1.70;;;1.40;99.90;;;;;;5119946;27;20827;-48
2023/01/28 04:23:03;;;;;;;3.27;2.17;;;1.40;99.90;;;;;;5124559;27;20202;-47
2023/01/28 04:25:31;;;;;;;4.63;2.40;;;1.30;99.90;;;;;;5122787;27;20254;-55
2023/01/28 04:27:59;;;;;;;3.97;2.10;;;1.20;99.90;;;;;;5102077;27;20208;-47
2023/01/28 04:30:28;;;;;;;6.70;2.20;;;1.20;99.90;;;;;;5106664;27;20193;-54
2023/01/28 04:33:20;;;;;;;3.50;1.90;;;1.20;99.90;;;;;;5084068;27;20236;-53
2023/01/28 04:36:11;;;;;;;3.73;2.70;;;1.10;99.90;;;;;;5100284;27;20793;-46
2023/01/28 04:39:00;;;;;;;5.17;2.07;;;1.10;99.90;;;;;;5100629;27;20847;-47
2023/01/28 04:41:46;;;;;;;7.10;2.63;;;1.00;99.90;;;;;;5100582;27;20927;-50
2023/01/28 04:44:26;;;;;;;4.13;2.60;;;0.90;99.90;;;;;;5077870;27;20290;-54
2023/01/28 04:47:18;;;;;;;2.57;2.07;;;0.90;99.90;;;;;;5105840;27;20212;-53
2023/01/28 04:50:06;;;;;;;6.53;3.30;;;0.90;99.90;;;;;;5124088;27;20210;-49
2023/01/28 04:52:53;;;;;;;4.10;2.70;;;0.80;99.90;;;;;;5119476;27;20204;-46
2023/01/28 04:55:36;;;;;;;5.60;2.90;;;0.80;99.90;;;;;;5121581;27;20224;-46
2023/01/28 04:58:03;;;;;;;3.40;2.50;;;0.80;99.90;;;;;;5123945;27;20208;-45
2023/01/28 05:00:32;;;;;;;4.63;2.60;;;0.70;99.90;;;;;;5092795;27;20303;-50
2023/01/28 05:02:59;;;;;;;3.33;2.60;;;0.70;99.90;;;;;;5103426;27;20292;-48
2023/01/28 05:05:27;;;;;;;3.93;2.40;;;0.70;99.90;;;;;;5118912;27;20220;-53
2023/01/28 05:08:00;;;;;;;4.13;2.53;;;0.70;99.90;;;;;;5123737;27;20298;-47
2023/01/28 05:10:27;;;;;;;3.20;2.67;;;0.70;99.90;;;;;;5116375;27;20778;-53
2023/01/28 05:12:54;;;;;;;4.70;2.40;;;0.60;99.90;;;;;;5097514;27;20285;-47
2023/01/28 05:15:22;;;;;;;3.70;2.60;;;0.60;99.90;;;;;;5083703;28;20318;-55
2023/01/28 05:17:50;;;;;;;3.93;2.27;;;0.60;99.90;;;;;;5106372;27;20984;-46
2023/01/28 05:20:21;;;;;;;3.97;2.83;;;0.60;99.90;;;;;;5110622;27;20197;-53
2023/01/28 05:22:51;;;;;;;3.27;2.53;;;0.60;99.90;;;;;;5098385;27;20875;-47
2023/01/28 05:25:21;;;;;;;3.17;2.50;;;0.50;99.90;;;;;;5102437;27;20233;-55
2023/01/28 05:27:51;;;;;;;4.10;2.83;;;0.40;99.90;;;;;;5101564;28;20220;-48
2023/01/28 05:30:18;;;;;;;6.70;2.70;;;0.30;99.90;;;;;;5109348;27;20674;-54
2023/01/28 05:32:45;;;;;;;3.47;2.80;;;0.30;99.90;;;;;;5113830;27;20201;-47
2023/01/28 05:35:13;;;;;;;3.63;2.27;;;0.30;99.90;;;;;;5114827;27;20749;-49
2023/01/28 05:37:40;;;;;;;4.70;2.50;;;0.20;99.90;;;;;;5119262;27;20922;-49
2023/01/28 05:40:10;;;;;;;3.30;2.63;;;0.10;99.90;;;;;;5123429;27;20207;-49
2023/01/28 05:42:37;;;;;;;3.67;2.50;;;0.10;99.90;;;;;;5083247;28;20189;-46
2023/01/28 05:45:20;;;;;;;4.33;2.40;;;0.10;99.90;;;;;;5079987;27;20224;-54
2023/01/28 05:48:00;;;;;;;3.60;2.47;;;0.10;99.90;;;;;;5109919;27;20195;-47
2023/01/28 05:50:41;;;;;;;5.97;2.57;;;0.00;99.90;;;;;;5102157;27;20719;-46
2023/01/28 05:53:14;;;;;;;4.27;2.90;;;-0.10;99.90;;;;;;5123866;27;20579;-52
2023/01/28 05:55:47;;;;;;;3.70;2.33;;;-0.20;99.90;;;;;;5119911;27;20198;-48
2023/01/28 05:58:14;;;;;;;2.70;2.50;;;-0.20;99.90;;;;;;5095657;27;20205;-49
2023/01/28 06:00:42;;;;;;;3.50;2.53;;;-0.20;99.90;;;;;;5081829;28;20220;-56
2023/01/28 06:03:09;;;;;;;5.50;2.10;;;-0.20;99.90;;;;;;5111007;27;20241;-48
2023/01/28 06:05:36;;;;;;;3.10;2.40;;;-0.30;99.90;;;;;;5103085;27;20232;-49
2023/01/28 06:08:04;;;;;;;2.83;2.43;;;-0.30;99.90;;;;;;5099029;28;20309;-49
2023/01/28 06:10:31;;;;;;;5.37;2.53;;;-0.40;99.90;;;;;;5102827;28;20257;-50
2023/01/28 06:12:59;;;;;;;3.60;2.50;;;-0.40;99.90;;;;;;5098136;28;20203;-48
2023/01/28 06:15:36;;;;;;;3.87;2.47;;;-0.50;99.90;;;;;;5077193;27;20217;-47
2023/01/28 06:18:14;;;;;;;4.10;2.43;;;-0.50;99.90;;;;;;5112905;27;20290;-52
2023/01/28 06:20:42;;;;;;;3.00;2.23;;;-0.60;99.90;;;;;;5106335;27;20206;-49
2023/01/28 06:23:08;;;;;;;3.63;2.67;;;-0.60;99.90;;;;;;5084925;28;20200;-46
2023/01/28 06:25:35;;;;;;;5.70;2.70;;;-0.60;99.90;;;;;;5101234;27;20231;-55
2023/01/28 06:28:07;;;;;;;2.90;2.60;;;-0.60;99.90;;;;;;5111827;27;20199;-48
2023/01/28 06:30:34;;;;;;;4.33;2.90;;;-0.60;99.90;;;;;;5101371;27;20670;-56
2023/01/28 06:33:01;;;;;;;5.43;2.50;;;-0.60;99.90;;;;;;5092505;28;20210;-51
2023/01/28 06:35:28;;;;;;;4.10;3.07;;;-0.70;99.90;;;;;;5119996;28;20246;-49
2023/01/28 06:37:55;;;;;;;5.63;2.40;;;-0.70;99.90;;;;;;5119269;27;20200;-47
2023/01/28 06:40:23;;;;;;;4.13;2.73;;;-0.70;99.90;;;;;;5102956;27;20227;-52
2023/01/28 06:42:50;;;;;;;3.03;2.80;;;-0.70;99.90;;;;;;5083058;28;20196;-49
2023/01/28 06:45:18;;;;;;;6.17;3.03;;;-0.70;99.90;;;;;;5109425;27;20261;-53
2023/01/28 06:47:45;;;;;;;3.97;3.37;;;-0.70;99.90;;;;;;5094311;27;20229;-46
2023/01/28 06:50:12;;;;;;;4.60;3.73;;;-0.70;99.90;;;;;;5110416;27;20199;-47
2023/01/28 06:52:40;;;;;;;5.27;4.17;;;-0.70;99.90;;;;;;5101425;28;20549;-46
2023/01/28 06:55:08;;;;;;;4.43;4.03;;;-0.70;99.90;;;;;;5107566;27;20214;-47
2023/01/28 06:57:37;;;;;;;5.50;3.77;;;-0.60;99.90;;;;;;5090776;27;20195;-47
2023/01/28 07:00:07;;;;;;;4.43;3.90;;;-0.60;99.90;;;;;;5106917;27;20553;-48
2023/01/28 07:02:35;;;;;;;6.33;4.33;;;-0.60;99.90;;;;;;5078175;27;20260;-49
2023/01/28 07:05:02;;;;;;;6.17;4.03;;;-0.60;99.90;;;;;;5105409;27;20216;-48
2023/01/28 07:07:28;;;;;;;6.83;4.00;;;-0.60;99.90;;;;;;5105628;27;20719;-54
2023/01/28 07:09:55;;;;;;;5.23;4.73;;;-0.60;99.90;;;;;;5117305;27;20205;-55
2023/01/28 07:12:22;;;;;;;5.80;5.30;;;-0.70;99.90;;;;;;5098765;27;20209;-52
2023/01/28 07:14:49;;;;;;;6.17;4.90;;;-0.60;99.90;;;;;;5100181;27;20219;-56
2023/01/28 07:17:16;;;;;;;8.13;5.53;;;-0.60;99.90;;;;;;5072548;27;20204;-47
2023/01/28 07:19:44;;;;;;;6.67;5.40;;;-0.60;99.90;;;;;;5101458;27;20215;-52
2023/01/28 07:22:12;;;;;;;9.27;5.47;;;-0.60;99.90;;;;;;5103306;27;20202;-49
2023/01/28 07:24:38;;;;;;;9.33;6.07;;;-0.60;99.90;;;;;;5106785;27;20255;-53
2023/01/28 07:27:05;;;;;;;7.87;5.90;;;-0.60;99.90;;;;;;5110947;27;20289;-46
2023/01/28 07:29:32;;;;;;;6.90;5.63;;;-0.70;99.90;;;;;;5108720;27;20205;-46
2023/01/28 07:31:59;;;;;;;10.40;5.37;;;-0.70;99.90;;;;;;5068090;27;24333;-48
2023/01/28 07:34:26;;;;;;;6.13;5.53;;;-0.60;99.90;;;;;;5117250;27;20214;-46
2023/01/28 07:36:54;;;;;;;7.07;5.90;;;-0.60;99.90;;;;;;5099016;27;20203;-52
2023/01/28 07:39:21;;;;;;;7.00;5.90;;;-0.60;99.90;;;;;;5109734;27;20290;-47
2023/01/28 07:41:48;;;;;;;6.97;5.70;;;-0.70;99.90;;;;;;5093684;27;20211;-54
2023/01/28 07:44:32;;;;;;;7.57;6.07;;;-0.70;99.90;;;;;;5093667;27;20323;-50
2023/01/28 07:46:58;;;;;;;7.63;5.43;;;-0.70;99.90;;;;;;5093638;27;20233;-47
2023/01/28 07:49:25;;;;;;;8.07;5.67;;;-0.70;99.90;;;;;;5078771;27;20221;-46
2023/01/28 07:51:53;;;;;;;9.40;6.57;;;-0.70;99.90;;;;;;5113759;27;20281;-53
2023/01/28 07:54:20;;;;;;;7.97;5.57;;;-0.70;99.90;;;;;;5106915;27;20249;-50
2023/01/28 07:56:47;;;;;;;8.53;6.73;;;-0.60;99.90;;;;;;5104575;27;20593;-55
2023/01/28 07:59:13;;;;;;;12.13;7.07;;;-0.60;99.90;;;;;;5081095;27;20237;-46
2023/01/28 08:01:40;;;;;;;11.20;8.23;;;-0.60;99.90;;;;;;5093342;27;20192;-57
2023/01/28 08:04:09;;;;;;;14.70;8.67;;;-0.60;99.90;;;;;;5078445;27;20217;-50
2023/01/28 08:06:36;;;;;;;14.07;8.77;;;-0.60;99.90;;;;;;5093208;27;20207;-54
2023/01/28 08:09:06;;;;;;;17.87;8.87;;;-0.50;99.90;;;;;;5096211;27;20213;-48
2023/01/28 08:11:34;;;;;;;11.67;8.63;;;-0.50;99.90;;;;;;5104554;27;20207;-55
2023/01/28 08:14:01;;;;;;;11.60;7.67;;;-0.50;99.90;;;;;;5088391;27;20227;-50
2023/01/28 08:16:28;;;;;;;9.57;7.40;;;-0.50;99.90;;;;;;5101483;27;20199;-51
2023/01/28 08:18:55;;;;;;;9.40;7.37;;;-0.40;99.90;;;;;;5089797;27;20204;-49
2023/01/28 08:21:23;;;;;;;8.87;7.37;;;-0.40;99.90;;;;;;5080353;27;20203;-51
2023/01/28 08:23:50;;;;;;;9.90;7.23;;;-0.40;99.90;;;;;;5094612;27;20239;-49
2023/01/28 08:26:18;;;;;;;10.17;6.90;;;-0.40;99.90;;;;;;5101483;27;20562;-55
2023/01/28 08:28:44;;;;;;;8.47;7.50;;;-0.30;99.90;;;;;;5104785;27;20200;-48
2023/01/28 08:31:11;;;;;;;10.80;6.83;;;-0.30;99.90;;;;;;5092671;27;20196;-54
2023/01/28 08:33:38;;;;;;;9.03;6.10;;;-0.20;99.90;;;;;;5093033;27;22034;-47
2023/01/28 08:36:06;;;;;;;9.33;7.57;;;-0.10;99.90;;;;;;5081023;27;20204;-55
2023/01/28 08:38:33;;;;;;;6.80;5.93;;;-0.10;99.90;;;;;;5101797;27;20199;-48
2023/01/28 08:41:00;;;;;;;8.53;6.57;;;-0.10;99.90;;;;;;5107069;27;20196;-53
2023/01/28 08:43:28;;;;;;;10.63;7.13;;;0.00;99.90;;;;;;5097447;27;20193;-50
2023/01/28 08:45:55;;;;;;;7.30;6.60;;;0.10;99.90;;;;;;5097990;27;20210;-50
2023/01/28 08:48:22;;;;;;;8.40;7.10;;;0.20;99.90;;;;;;5101331;28;20218;-45
2023/01/28 08:50:49;;;;;;;7.40;6.60;;;0.20;99.90;;;;;;5082404;27;20204;-50
2023/01/28 08:53:18;;;;;;;10.97;7.23;;;0.20;99.90;;;;;;5091186;27;20255;-52
2023/01/28 08:55:45;;;;;;;7.73;7.00;;;0.30;99.90;;;;;;5110523;27;20203;-46
2023/01/28 08:58:14;;;;;;;9.87;7.33;;;0.30;99.90;;;;;;5097145;27;20530;-55
2023/01/28 09:00:43;;;;;;;7.17;6.30;;;0.40;99.90;;;;;;5102060;27;20202;-48
2023/01/28 09:03:10;;;;;;;9.60;7.67;;;0.40;99.90;;;;;;5101858;27;20234;-53
2023/01/28 09:05:38;;;;;;;9.57;7.33;;;0.50;99.90;;;;;;5090561;27;20965;-47
2023/01/28 09:08:06;;;;;;;6.17;5.57;;;0.60;99.90;;;;;;5081294;27;20666;-54
2023/01/28 09:10:33;;;;;;;7.40;6.70;;;0.70;99.90;;;;;;5102083;27;20282;-46
2023/01/28 09:13:05;;;;;;;8.73;6.77;;;0.80;99.90;;;;;;5097199;27;20208;-50
2023/01/28 09:15:32;;;;;;;8.37;5.97;;;0.90;99.90;;;;;;5098376;27;20209;-49
2023/01/28 09:18:01;;;;;;;7.07;6.37;;;1.10;99.90;;;;;;5098968;27;20632;-48
2023/01/28 09:20:28;;;;;;;6.47;5.87;;;1.20;99.90;;;;;;5088058;27;21014;-50
2023/01/28 09:22:55;;;;;;;7.60;5.87;;;1.20;99.90;;;;;;5085139;27;20213;-45
2023/01/28 09:25:22;;;;;;;8.90;6.93;;;1.30;99.90;;;;;;5103039;27;20231;-47
2023/01/28 09:27:48;;;;;;;7.77;6.10;;;1.20;99.90;;;;;;5106385;27;20190;-49
2023/01/28 09:30:16;;;;;;;7.37;6.10;;;1.20;99.90;;;;;;5095413;27;20745;-54
2023/01/28 09:32:43;;;;;;;8.10;6.10;;;1.10;99.90;;;;;;5105714;27;20653;-48
2023/01/28 09:35:11;;;;;;;7.43;5.63;;;1.20;99.90;;;;;;5098036;27;20232;-53
2023/01/28 09:37:38;;;;;;;8.13;6.37;;;1.20;99.90;;;;;;5101448;27;20190;-47
2023/01/28 09:40:06;;;;;;;8.07;6.60;;;1.30;99.90;;;;;;5083612;27;20227;-53
2023/01/28 09:42:51;;;;;;;7.27;6.57;;;1.30;99.90;;;;;;5109196;27;20231;-52
2023/01/28 09:45:25;;;;;;;9.40;6.37;;;1.40;99.90;;;;;;5093483;27;20229;-52
2023/01/28 09:47:57;;;;;;;6.90;5.80;;;1.40;99.90;;;;;;5098971;28;20205;-48
2023/01/28 09:50:31;;;;;;;8.40;6.20;;;1.50;99.90;;;;;;5095383;27;20189;-47
2023/01/28 09:53:07;;;;;;;6.73;6.13;;;1.60;99.90;;;;;;5095040;27;20196;-48
2023/01/28 09:55:37;;;;;;;5.90;5.17;;;1.60;99.90;;;;;;5085006;27;20913;-49
2023/01/28 09:58:07;;;;;;;8.13;6.43;;;1.60;99.90;;;;;;5102413;27;20283;-55
2023/01/28 10:00:41;;;;;;;8.73;5.83;;;1.70;99.90;;;;;;5101163;28;20222;-45
2023/01/28 10:03:25;;;;;;;7.03;6.33;;;1.70;99.90;;;;;;5109277;27;20214;-53
2023/01/28 10:06:02;;;;;;;6.20;5.60;;;1.80;99.90;;;;;;5124348;27;21017;-47
2023/01/28 10:08:40;;;;;;;6.07;5.47;;;1.90;99.90;;;;;;5095155;27;20208;-50
2023/01/28 10:11:16;;;;;;;7.20;5.33;;;2.00;99.90;;;;;;5079580;27;20664;-51
2023/01/28 10:13:51;;;;;;;7.80;6.03;;;2.00;99.90;;;;;;5117618;27;20216;-47
2023/01/28 10:16:29;;;;;;;8.67;6.07;;;2.00;99.90;;;;;;5112139;27;20212;-53
2023/01/28 10:19:00;;;;;;;6.33;5.73;;;2.00;99.90;;;;;;5099282;28;20204;-49
2023/01/28 10:21:36;;;;;;;9.17;5.17;;;2.10;99.90;;;;;;5101055;28;20208;-50
2023/01/28 10:24:09;;;;;;;6.90;5.80;;;2.10;99.90;;;;;;5092158;28;20213;-54
2023/01/28 10:26:39;;;;;;;8.63;6.57;;;2.00;99.90;;;;;;5087236;27;20612;-51
2023/01/28 10:29:13;;;;;;;8.70;6.40;;;2.00;99.90;;;;;;5099958;27;20192;-52
2023/01/28 10:32:13;;;;;;;7.73;6.00;;;2.00;99.90;;;;;;5097347;28;20232;-53
2023/01/28 10:34:40;;;;;;;7.40;6.63;;;2.00;99.90;;;;;;5117581;27;20228;-49
2023/01/28 10:37:12;;;;;;;9.40;6.43;;;2.00;99.90;;;;;;5118848;27;20637;-54
2023/01/28 10:39:39;;;;;;;8.23;6.33;;;2.00;99.90;;;;;;5101253;28;20201;-45
2023/01/28 10:42:17;;;;;;;8.30;6.50;;;2.00;99.90;;;;;;5090979;27;20198;-54
2023/01/28 10:44:47;;;;;;;8.47;6.63;;;2.10;99.90;;;;;;5108980;28;20611;-47
2023/01/28 10:47:20;;;;;;;9.53;7.47;;;2.10;99.90;;;;;;5114985;27;20212;-52
2023/01/28 10:49:53;;;;;;;7.47;6.63;;;2.20;99.90;;;;;;5102981;28;20196;-47
2023/01/28 10:52:21;;;;;;;9.77;6.60;;;2.20;99.90;;;;;;5100645;28;20729;-49
2023/01/28 10:54:47;;;;;;;7.43;6.60;;;2.20;99.90;;;;;;5089821;28;20227;-46
2023/01/28 10:57:18;;;;;;;9.23;7.23;;;2.10;99.90;;;;;;5077373;28;20684;-52
2023/01/28 10:59:48;;;;;;;9.90;6.47;;;2.10;99.90;;;;;;5111013;28;20196;-52
2023/01/28 11:02:30;;;;;;;7.80;6.63;;;2.10;99.90;;;;;;5090058;28;20684;-51
2023/01/28 11:05:03;;;;;;;7.93;6.90;;;2.10;99.90;;;;;;5092525;28;20724;-46
2023/01/28 11:07:31;;;;;;;8.20;7.23;;;2.20;99.90;;;;;;5101265;28;20185;-49
2023/01/28 11:09:58;;;;;;;8.90;7.60;;;2.20;99.90;;;;;;5096371;28;20193;-47
2023/01/28 11:12:27;;;;;;;8.83;7.87;;;2.30;99.90;;;;;;5088592;28;20209;-49
2023/01/28 11:14:56;;;;;;;12.17;7.33;;;2.40;99.90;;;;;;5099257;28;20249;-48
2023/01/28 11:17:25;;;;;;;9.40;7.40;;;2.50;99.90;;;;;;5103288;27;20200;-45
2023/01/28 11:19:53;;;;;;;8.93;7.67;;;2.60;99.90;;;;;;5103524;28;20193;-45
2023/01/28 11:22:26;;;;;;;9.77;7.37;;;2.70;99.90;;;;;;5099727;28;20189;-45
2023/01/28 11:24:55;;;;;;;8.00;7.20;;;2.80;99.90;;;;;;5103397;28;20224;-46
2023/01/28 11:27:27;;;;;;;10.77;7.30;;;2.80;99.90;;;;;;5068266;28;25949;-50
2023/01/28 11:29:56;;;;;;;8.47;7.03;;;2.80;99.90;;;;;;5104707;28;20222;-47
2023/01/28 11:32:26;;;;;;;10.03;7.60;;;2.90;99.90;;;;;;5106798;28;20197;-45
2023/01/28 11:34:56;;;;;;;9.77;7.63;;;2.80;99.90;;;;;;5097794;28;20221;-46
2023/01/28 11:37:25;;;;;;;9.00;6.07;;;2.80;99.90;;;;;;5099185;28;20193;-45
2023/01/28 11:40:03;;;;;;;8.27;7.03;;;2.80;99.90;;;;;;5083926;28;20205;-44
2023/01/28 11:42:31;;;;;;;7.33;6.53;;;2.80;99.90;;;;;;5088807;28;20190;-46
2023/01/28 11:44:58;;;;;;;8.43;6.80;;;2.80;99.90;;;;;;5080670;28;20225;-54
2023/01/28 11:47:47;;;;;;;7.43;6.50;;;2.80;99.90;;;;;;5103537;27;20929;-48
2023/01/28 11:50:35;;;;;;;7.37;6.77;;;2.80;99.90;;;;;;5106928;27;20208;-46
2023/01/28 11:53:16;;;;;;;7.97;7.00;;;2.70;99.90;;;;;;5104381;28;20205;-53
2023/01/28 11:56:02;;;;;;;9.10;7.43;;;2.70;99.90;;;;;;5106623;27;20193;-45
2023/01/28 11:58:40;;;;;;;9.80;7.37;;;2.60;99.90;;;;;;5084379;27;21070;-46
2023/01/28 12:01:13;;;;;;;11.60;7.90;;;2.60;99.90;;;;;;5098597;27;20208;-52
2023/01/28 12:03:50;;;;;;;8.40;6.77;;;2.60;99.90;;;;;;5125916;27;20223;-47
2023/01/28 12:06:28;;;;;;;8.10;7.30;;;2.50;99.90;;;;;;5096597;27;20224;-48
2023/01/28 12:09:06;;;;;;;10.23;7.60;;;2.50;99.90;;;;;;5101300;27;20197;-52
2023/01/28 12:14:37;;;;;;;8.83;7.80;;;2.50;99.90;;;;;;5071221;27;20217;-46
2023/01/28 12:17:18;;;;;;;10.40;7.73;;;2.60;99.90;;;;;;5090817;27;20194;-49
2023/01/28 12:20:01;;;;;;;13.80;9.10;;;2.70;99.90;;;;;;5091011;27;20196;-55
2023/01/28 12:22:42;;;;;;;9.40;7.57;;;2.90;99.90;;;;;;5105359;27;20771;-46
2023/01/28 12:25:22;;;;;;;10.10;8.17;;;3.00;99.90;;;;;;5102269;27;20502;-49
2023/01/28 12:28:00;;;;;;;46.17;21.60;;;3.00;99.90;;;;;;5098010;27;20225;-53
2023/01/28 12:30:43;;;;;;;10.80;8.57;;;3.10;99.90;;;;;;5077110;27;20576;-49
2023/01/28 12:33:42;;;;;;;18.43;11.23;;;3.10;99.90;;;;;;5098010;27;20580;-52
2023/01/28 12:36:21;;;;;;;14.20;9.37;;;3.10;99.90;;;;;;5099572;27;20213;-54
2023/01/28 12:39:01;;;;;;;11.03;8.70;;;3.10;99.90;;;;;;5109108;27;20537;-54
2023/01/28 12:41:33;;;;;;;11.03;8.97;;;3.10;99.90;;;;;;5099042;28;20255;-49
2023/01/28 12:44:05;;;;;;;10.87;8.60;;;3.20;99.90;;;;;;5104720;27;20919;-48
2023/01/28 12:46:41;;;;;;;13.43;9.27;;;3.20;99.90;;;;;;5080859;27;20331;-52
2023/01/28 12:49:13;;;;;;;10.93;8.50;;;3.10;99.90;;;;;;5096942;27;20197;-46
2023/01/28 12:51:51;;;;;;;10.97;8.60;;;3.10;99.90;;;;;;5103395;27;20200;-50
2023/01/28 12:54:24;;;;;;;9.40;8.00;;;3.10;99.90;;;;;;5116810;27;20760;-47
2023/01/28 12:56:56;;;;;;;10.50;8.20;;;3.10;99.90;;;;;;5108075;27;20913;-46
2023/01/28 12:59:30;;;;;;;9.47;8.23;;;3.10;99.90;;;;;;5106840;27;20224;-47
2023/01/28 13:02:05;;;;;;;9.00;7.63;;;3.10;99.90;;;;;;5081972;28;20219;-52
2023/01/28 13:04:39;;;;;;;10.33;8.47;;;3.00;99.90;;;;;;5097532;27;20614;-50
2023/01/28 13:07:11;;;;;;;92.70;35.33;;;3.00;99.90;;;;;;5101427;27;20217;-53
2023/01/28 13:09:45;;;;;;;816.03;178.73;;;2.90;99.90;;;;;;5097974;28;20209;-53
2023/01/28 13:12:13;;;;;;;226.37;53.40;;;2.90;99.90;;;;;;5109225;27;20196;-47
2023/01/28 13:14:41;;;;;;;15.33;11.37;;;2.90;99.90;;;;;;5109541;27;20577;-54
2023/01/28 13:17:11;;;;;;;14.83;10.37;;;2.90;99.90;;;;;;5084921;28;20197;-48
2023/01/28 13:19:40;;;;;;;12.10;8.40;;;2.90;99.90;;;;;;5101396;27;20193;-54
2023/01/28 13:22:12;;;;;;;15.37;9.67;;;2.90;99.90;;;;;;5109230;27;20189;-48
2023/01/28 13:24:39;;;;;;;11.53;9.10;;;3.00;99.90;;;;;;5103457;27;20711;-50
2023/01/28 13:27:21;;;;;;;13.13;9.97;;;3.10;99.90;;;;;;5105858;27;20220;-46
2023/01/28 13:30:01;;;;;;;12.43;9.80;;;3.10;99.90;;;;;;5101993;27;20201;-54
2023/01/28 13:32:32;;;;;;;21.27;10.50;;;3.00;99.90;;;;;;5106985;27;20197;-45
2023/01/28 13:35:01;;;;;;;13.83;10.00;;;3.10;99.90;;;;;;5082204;27;20221;-51
2023/01/28 13:37:33;;;;;;;13.83;9.43;;;3.10;99.90;;;;;;5099667;28;20211;-46
2023/01/28 13:40:05;;;;;;;15.43;10.57;;;3.10;99.90;;;;;;5096596;27;20209;-46
2023/01/28 13:42:32;;;;;;;11.57;8.73;;;3.10;99.90;;;;;;5100146;27;20736;-51
2023/01/28 13:45:21;;;;;;;15.00;9.73;;;3.10;99.90;;;;;;5097455;27;20205;-45